Time;durP1;ratioP1;P1;durP2;ratioP2;P2;SDS_P1;SDS_P2;PMS_P1;PMS_P2;Temp;Humidity;BMP_temperature;BMP_pressure;BME280_temperature;BME280_humidity;BME280_pressure;Samples;Min_cycle;Max_cycle;Signal;HPM_P1;HPM_P2
2023/05/05 15:14:54;;;;;;;0.65;0.47;;;;;;;;;;7410199;19;20544;-91
2023/05/05 15:17:21;;;;;;;0.30;0.30;;;;;;;;;;7405992;19;20594;-91
2023/05/05 15:19:47;;;;;;;0.65;0.65;;;;;;;;;;7401170;19;20137;-89
2023/05/05 15:22:14;;;;;;;0.50;0.50;;;;;;;;;;7403488;19;20145;-89
2023/05/05 15:24:41;;;;;;;1.02;1.00;;;;;;;;;;7392366;19;20136;-91
2023/05/05 15:27:08;;;;;;;0.70;0.70;;;;;;;;;;7402519;19;20173;-90
2023/05/05 15:29:35;;;;;;;0.45;0.45;;;;;;;;;;7417055;19;20164;-89
2023/05/05 15:32:02;;;;;;;0.75;0.75;;;;;;;;;;7404187;19;20147;-90
2023/05/05 15:34:29;;;;;;;0.73;0.73;;;;;;;;;;7403486;19;20161;-92
2023/05/05 15:36:58;;;;;;;0.82;0.82;;;;;;;;;;7402453;19;20215;-89
2023/05/05 15:39:30;;;;;;;0.32;0.32;;;;;;;;;;7398194;19;20152;-85
2023/05/05 15:42:03;;;;;;;0.40;0.40;;;;;;;;;;7403258;19;20157;-87
2023/05/05 15:44:34;;;;;;;0.80;0.80;;;;;;;;;;7396795;19;20141;-88
2023/05/05 15:47:01;;;;;;;0.82;0.82;;;;;;;;;;7400347;19;20172;-88
2023/05/05 15:49:27;;;;;;;0.60;0.60;;;;;;;;;;7403198;19;20165;-87
2023/05/05 15:52:23;;;;;;;0.40;0.40;;;;;;;;;;7400515;19;20169;-87
2023/05/05 15:55:38;;;;;;;;;;;;;;;;;;;;;
2023/05/05 15:58:35;;;;;;;0.50;0.50;;;;;;;;;;7401988;19;20152;-86
2023/05/05 16:01:19;;;;;;;0.38;0.38;;;;;;;;;;7395754;19;20148;-87
2023/05/05 16:04:10;;;;;;;0.38;0.38;;;;;;;;;;7392727;19;20133;-86
2023/05/05 16:06:44;;;;;;;0.38;0.38;;;;;;;;;;7390533;19;20187;-84
2023/05/05 16:09:11;;;;;;;0.50;0.50;;;;;;;;;;7398028;19;20536;-85
2023/05/05 16:11:37;;;;;;;0.95;0.75;;;;;;;;;;7386730;19;20144;-86
2023/05/05 16:14:58;;;;;;;0.43;0.43;;;;;;;;;;7395785;19;20148;-88
2023/05/05 16:17:58;;;;;;;0.40;0.40;;;;;;;;;;7387452;19;20136;-87
2023/05/05 16:20:47;;;;;;;0.73;0.73;;;;;;;;;;7392693;19;20499;-88
2023/05/05 16:23:55;;;;;;;1.92;0.95;;;;;;;;;;7392324;19;20522;-87
2023/05/05 16:26:33;;;;;;;0.63;0.63;;;;;;;;;;7410104;19;20587;-85
2023/05/05 16:29:36;;;;;;;0.50;0.50;;;;;;;;;;7392721;19;20243;-88
2023/05/05 16:32:13;;;;;;;0.38;0.38;;;;;;;;;;7391948;19;20149;-85
2023/05/05 16:34:50;;;;;;;0.32;0.32;;;;;;;;;;7393998;19;20148;-87
2023/05/05 16:37:38;;;;;;;0.40;0.40;;;;;;;;;;7385555;19;20148;-87
2023/05/05 16:40:28;;;;;;;0.65;0.65;;;;;;;;;;7396795;19;20141;-85
2023/05/05 16:46:20;;;;;;;0.30;0.30;;;;;;;;;;7392938;19;20164;-85
2023/05/05 16:48:54;;;;;;;0.40;0.40;;;;;;;;;;7388916;19;20196;-86
2023/05/05 16:51:33;;;;;;;0.30;0.30;;;;;;;;;;7396566;19;20156;-86
2023/05/05 16:54:33;;;;;;;0.52;0.52;;;;;;;;;;7395275;19;20141;-86
2023/05/05 16:57:48;;;;;;;0.38;0.38;;;;;;;;;;7394327;19;20179;-87
2023/05/05 17:00:19;;;;;;;0.43;0.43;;;;;;;;;;7388573;19;20141;-86
2023/05/05 17:02:46;;;;;;;0.30;0.30;;;;;;;;;;7380990;19;20606;-85
2023/05/05 17:05:18;;;;;;;0.95;0.77;;;;;;;;;;7392614;19;20151;-85
2023/05/05 17:07:47;;;;;;;0.57;0.57;;;;;;;;;;7396488;19;21013;-85
2023/05/05 17:10:17;;;;;;;0.50;0.50;;;;;;;;;;7395977;19;20151;-86
2023/05/05 17:12:49;;;;;;;0.40;0.40;;;;;;;;;;7394052;19;20140;-85
2023/05/05 17:15:23;;;;;;;0.40;0.40;;;;;;;;;;7393316;19;20173;-86
2023/05/05 17:18:06;;;;;;;0.50;0.50;;;;;;;;;;7392742;19;20141;-88
2023/05/05 17:20:47;;;;;;;0.40;0.40;;;;;;;;;;7395452;19;20136;-85
2023/05/05 17:23:20;;;;;;;0.40;0.40;;;;;;;;;;7391850;19;20148;-86
2023/05/05 17:25:53;;;;;;;0.50;0.50;;;;;;;;;;7394202;19;20167;-85
2023/05/05 17:28:20;;;;;;;0.55;0.55;;;;;;;;;;7391919;19;20141;-86
2023/05/05 17:31:01;;;;;;;0.50;0.50;;;;;;;;;;7391625;19;20692;-86
2023/05/05 17:33:48;;;;;;;0.40;0.40;;;;;;;;;;7390234;19;20503;-86
2023/05/05 17:36:49;;;;;;;0.30;0.30;;;;;;;;;;7392618;19;20265;-88
2023/05/05 17:40:04;;;;;;;0.60;0.60;;;;;;;;;;7406117;19;20165;-91
2023/05/05 17:42:51;;;;;;;0.50;0.50;;;;;;;;;;7397479;19;20173;-90
2023/05/05 17:45:36;;;;;;;0.60;0.60;;;;;;;;;;7400691;19;20766;-87
2023/05/05 17:48:05;;;;;;;0.55;0.55;;;;;;;;;;7402135;19;20158;-87
2023/05/05 17:50:34;;;;;;;0.70;0.70;;;;;;;;;;7407331;19;20542;-89
2023/05/05 17:53:01;;;;;;;2.08;0.95;;;;;;;;;;7410644;19;20154;-88
2023/05/05 17:56:02;;;;;;;0.40;0.40;;;;;;;;;;7407213;19;20197;-88
2023/05/05 17:58:42;;;;;;;0.63;0.63;;;;;;;;;;7404494;19;20209;-88
2023/05/05 18:04:53;;;;;;;0.50;0.50;;;;;;;;;;7403637;19;20117;-87
2023/05/05 18:07:22;;;;;;;0.52;0.52;;;;;;;;;;7398617;19;20519;-86
2023/05/05 18:09:50;;;;;;;0.38;0.38;;;;;;;;;;7402886;19;20146;-86
2023/05/05 18:12:17;;;;;;;0.40;0.40;;;;;;;;;;7407989;19;20137;-86
2023/05/05 18:14:44;;;;;;;0.63;0.63;;;;;;;;;;7402408;19;20149;-86
2023/05/05 18:17:28;;;;;;;;;;;;;;;;;;;;;
2023/05/05 18:19:57;;;;;;;0.30;0.30;;;;;;;;;;7400737;19;20176;-87
2023/05/05 18:22:31;;;;;;;0.52;0.52;;;;;;;;;;7401742;19;20140;-86
2023/05/05 18:27:39;;;;;;;0.52;0.52;;;;;;;;;;7386599;19;20184;-86
2023/05/05 18:30:07;;;;;;;0.60;0.60;;;;;;;;;;7397607;19;20160;-86
2023/05/05 18:32:34;;;;;;;0.40;0.40;;;;;;;;;;7399268;19;20144;-87
2023/05/05 18:35:00;;;;;;;0.60;0.60;;;;;;;;;;7402492;19;20149;-86
2023/05/05 18:37:28;;;;;;;1.05;0.98;;;;;;;;;;7402213;19;20140;-89
2023/05/05 18:39:55;;;;;;;0.50;0.50;;;;;;;;;;7400985;19;20149;-87
2023/05/05 18:42:21;;;;;;;0.50;0.50;;;;;;;;;;7403220;19;20145;-87
2023/05/05 18:44:48;;;;;;;0.30;0.30;;;;;;;;;;7402540;19;20151;-85
2023/05/05 18:47:15;;;;;;;0.80;0.80;;;;;;;;;;7412646;19;20173;-87
2023/05/05 18:49:44;;;;;;;1.27;1.00;;;;;;;;;;7425849;19;20193;-86
2023/05/05 18:52:10;;;;;;;0.40;0.40;;;;;;;;;;7412554;19;20148;-86
2023/05/05 18:54:37;;;;;;;0.32;0.32;;;;;;;;;;7388980;19;20152;-86
2023/05/05 18:57:04;;;;;;;0.57;0.57;;;;;;;;;;7393322;19;20149;-86
2023/05/05 18:59:30;;;;;;;0.32;0.32;;;;;;;;;;7396584;19;20193;-86
2023/05/05 19:01:58;;;;;;;0.50;0.50;;;;;;;;;;7395299;19;20504;-86
2023/05/05 19:04:24;;;;;;;0.63;0.63;;;;;;;;;;7415486;19;20157;-85
2023/05/05 19:06:57;;;;;;;0.50;0.50;;;;;;;;;;7415633;19;20177;-86
2023/05/05 19:09:24;;;;;;;0.40;0.40;;;;;;;;;;7415192;19;20133;-86
2023/05/05 19:11:51;;;;;;;0.68;0.68;;;;;;;;;;7417076;19;20184;-87
2023/05/05 19:14:17;;;;;;;0.30;0.30;;;;;;;;;;7394635;19;20140;-86
2023/05/05 19:16:44;;;;;;;0.60;0.60;;;;;;;;;;7395679;19;20172;-86
2023/05/05 19:19:10;;;;;;;0.70;0.52;;;;;;;;;;7397299;19;20679;-88
2023/05/05 19:21:37;;;;;;;0.40;0.40;;;;;;;;;;7393117;19;20165;-88
2023/05/05 19:24:06;;;;;;;0.60;0.60;;;;;;;;;;7396300;19;20604;-88
2023/05/05 19:26:35;;;;;;;0.40;0.40;;;;;;;;;;7396631;19;20168;-88
2023/05/05 19:29:02;;;;;;;0.52;0.52;;;;;;;;;;7396419;19;20538;-86
2023/05/05 19:31:29;;;;;;;0.73;0.45;;;;;;;;;;7401771;19;20129;-88
2023/05/05 19:33:59;;;;;;;0.80;0.80;;;;;;;;;;7400632;19;20144;-87
2023/05/05 19:36:27;;;;;;;0.40;0.40;;;;;;;;;;7396391;19;21057;-87
2023/05/05 19:38:54;;;;;;;0.68;0.65;;;;;;;;;;7399675;19;20129;-87
2023/05/05 19:41:21;;;;;;;0.75;0.75;;;;;;;;;;7400827;19;20491;-86
2023/05/05 19:43:48;;;;;;;0.40;0.40;;;;;;;;;;7399044;19;20144;-86
2023/05/05 19:46:15;;;;;;;0.55;0.55;;;;;;;;;;7399506;19;20530;-86
2023/05/05 19:48:43;;;;;;;1.38;0.80;;;;;;;;;;7396473;19;20158;-86
2023/05/05 19:51:09;;;;;;;0.95;0.95;;;;;;;;;;7395621;19;20125;-86
2023/05/05 19:53:36;;;;;;;0.60;0.60;;;;;;;;;;7397452;19;20139;-86
2023/05/05 19:56:03;;;;;;;0.70;0.70;;;;;;;;;;7395835;19;20621;-86
2023/05/05 19:58:51;;;;;;;0.30;0.30;;;;;;;;;;7392865;19;20145;-85
2023/05/05 20:01:18;;;;;;;1.98;1.08;;;;;;;;;;7387963;19;20140;-86
2023/05/05 20:03:44;;;;;;;0.60;0.60;;;;;;;;;;7383291;19;20157;-86
2023/05/05 20:06:11;;;;;;;0.73;0.73;;;;;;;;;;7390801;19;20175;-87
2023/05/05 20:08:38;;;;;;;1.10;0.70;;;;;;;;;;7390565;19;20159;-86
2023/05/05 20:11:04;;;;;;;0.40;0.40;;;;;;;;;;7393650;19;20169;-86
2023/05/05 20:13:33;;;;;;;0.50;0.50;;;;;;;;;;7393985;19;20137;-87
2023/05/05 20:15:59;;;;;;;0.60;0.60;;;;;;;;;;7395312;19;20168;-86
2023/05/05 20:18:26;;;;;;;0.60;0.50;;;;;;;;;;7397483;19;20140;-86
2023/05/05 20:20:53;;;;;;;0.30;0.30;;;;;;;;;;7397725;19;20547;-87
2023/05/05 20:23:19;;;;;;;0.70;0.70;;;;;;;;;;7397481;19;20140;-87
2023/05/05 20:25:47;;;;;;;0.40;0.40;;;;;;;;;;7392960;19;20152;-87
2023/05/05 20:28:14;;;;;;;0.70;0.70;;;;;;;;;;7396467;19;20145;-87
2023/05/05 20:30:40;;;;;;;0.60;0.60;;;;;;;;;;7387773;19;20180;-87
2023/05/05 20:33:07;;;;;;;1.15;1.15;;;;;;;;;;7386624;19;20140;-87
2023/05/05 20:35:34;;;;;;;0.82;0.82;;;;;;;;;;7389767;19;20613;-87
2023/05/05 20:38:03;;;;;;;0.68;0.68;;;;;;;;;;7388715;19;21346;-86
2023/05/05 20:40:32;;;;;;;0.57;0.57;;;;;;;;;;7391017;19;20173;-86
2023/05/05 20:42:58;;;;;;;0.57;0.57;;;;;;;;;;7388661;19;20165;-87
2023/05/05 20:45:25;;;;;;;0.45;0.45;;;;;;;;;;7389545;19;20168;-87
2023/05/05 20:47:51;;;;;;;0.60;0.60;;;;;;;;;;7398035;19;20161;-86
2023/05/05 20:50:21;;;;;;;0.35;0.35;;;;;;;;;;7395758;19;20132;-86
2023/05/05 20:52:48;;;;;;;0.70;0.70;;;;;;;;;;7393941;19;20161;-86
2023/05/05 20:55:15;;;;;;;0.40;0.40;;;;;;;;;;7394277;19;20153;-86
2023/05/05 20:57:41;;;;;;;0.50;0.50;;;;;;;;;;7396075;19;20129;-86
2023/05/05 21:00:08;;;;;;;0.52;0.52;;;;;;;;;;7393600;19;20153;-86
2023/05/05 21:02:35;;;;;;;0.82;0.80;;;;;;;;;;7390812;19;20600;-86
2023/05/05 21:05:03;;;;;;;0.90;0.90;;;;;;;;;;7395232;19;20157;-86
2023/05/05 21:07:31;;;;;;;0.40;0.40;;;;;;;;;;7404846;19;20514;-86
2023/05/05 21:10:02;;;;;;;0.45;0.45;;;;;;;;;;7404763;19;20136;-86
2023/05/05 21:12:29;;;;;;;0.50;0.50;;;;;;;;;;7398865;19;20209;-86
2023/05/05 21:14:57;;;;;;;1.02;1.02;;;;;;;;;;7398497;19;20159;-86
2023/05/05 21:17:25;;;;;;;0.60;0.60;;;;;;;;;;7399857;19;20217;-85
2023/05/05 21:19:52;;;;;;;0.50;0.50;;;;;;;;;;7398207;19;20137;-86
2023/05/05 21:22:19;;;;;;;0.55;0.55;;;;;;;;;;7392722;19;20748;-86
2023/05/05 21:24:46;;;;;;;2.00;1.33;;;;;;;;;;7394045;19;20165;-85
2023/05/05 21:27:12;;;;;;;0.50;0.50;;;;;;;;;;7394287;19;20192;-86
2023/05/05 21:29:39;;;;;;;0.65;0.65;;;;;;;;;;7393897;19;20140;-85
2023/05/05 21:32:16;;;;;;;0.73;0.73;;;;;;;;;;7389357;19;20137;-86
2023/05/05 21:34:45;;;;;;;0.50;0.50;;;;;;;;;;7390804;19;20148;-85
2023/05/05 21:37:14;;;;;;;0.30;0.30;;;;;;;;;;7389235;19;20145;-85
2023/05/05 21:39:41;;;;;;;0.77;0.77;;;;;;;;;;7389412;19;20145;-86
2023/05/05 21:42:07;;;;;;;0.65;0.63;;;;;;;;;;7386939;19;20171;-85
2023/05/05 21:44:34;;;;;;;0.43;0.43;;;;;;;;;;7389103;19;20145;-85
2023/05/05 21:47:01;;;;;;;0.70;0.70;;;;;;;;;;7388885;19;20524;-86
2023/05/05 21:49:28;;;;;;;0.70;0.70;;;;;;;;;;7395476;19;20169;-87
2023/05/05 21:51:55;;;;;;;0.50;0.50;;;;;;;;;;7393347;19;20523;-85
2023/05/05 21:54:21;;;;;;;0.93;0.93;;;;;;;;;;7392928;19;20137;-87
2023/05/05 21:56:48;;;;;;;0.40;0.40;;;;;;;;;;7393205;19;20199;-86
2023/05/05 21:59:15;;;;;;;0.57;0.57;;;;;;;;;;7384650;19;20162;-85
2023/05/05 22:01:42;;;;;;;0.55;0.55;;;;;;;;;;7383897;19;20153;-85
2023/05/05 22:04:09;;;;;;;0.55;0.55;;;;;;;;;;7382980;19;20453;-85
2023/05/05 22:06:35;;;;;;;0.73;0.70;;;;;;;;;;7390087;19;20169;-85
2023/05/05 22:09:02;;;;;;;1.50;1.15;;;;;;;;;;7386215;19;20170;-85
2023/05/05 22:11:29;;;;;;;1.30;0.80;;;;;;;;;;7393693;19;20145;-85
2023/05/05 22:13:55;;;;;;;0.60;0.60;;;;;;;;;;7393096;19;20169;-85
2023/05/05 22:16:22;;;;;;;1.05;0.60;;;;;;;;;;7388075;19;20160;-85
2023/05/05 22:18:49;;;;;;;0.73;0.60;;;;;;;;;;7392599;19;20154;-86
2023/05/05 22:21:15;;;;;;;0.75;0.75;;;;;;;;;;7394170;19;20133;-84
2023/05/05 22:23:42;;;;;;;0.95;0.90;;;;;;;;;;7393804;19;20165;-85
2023/05/05 23:24:32;;;;;;;0.52;0.52;;;;;;;;;;7337766;19;20197;-86
2023/05/05 23:27:03;;;;;;;0.60;0.60;;;;;;;;;;7396987;19;20152;-86
2023/05/05 23:29:35;;;;;;;0.50;0.50;;;;;;;;;;7401953;19;20531;-88
2023/05/05 23:32:02;;;;;;;0.70;0.63;;;;;;;;;;7395926;19;20484;-86
2023/05/05 23:34:28;;;;;;;0.75;0.70;;;;;;;;;;7401611;19;20152;-86
2023/05/05 23:36:55;;;;;;;0.30;0.30;;;;;;;;;;7401753;19;20160;-86
2023/05/05 23:39:22;;;;;;;0.50;0.50;;;;;;;;;;7414721;19;20160;-88
2023/05/05 23:41:49;;;;;;;0.55;0.55;;;;;;;;;;7423723;19;20156;-87
2023/05/05 23:44:15;;;;;;;0.43;0.38;;;;;;;;;;7423835;19;20133;-86
2023/05/05 23:46:44;;;;;;;0.70;0.70;;;;;;;;;;7398600;19;20160;-86
2023/05/05 23:49:11;;;;;;;0.57;0.57;;;;;;;;;;7399985;19;20136;-86
2023/05/05 23:51:37;;;;;;;1.00;0.93;;;;;;;;;;7399829;19;20484;-85
2023/05/05 23:54:04;;;;;;;0.98;0.98;;;;;;;;;;7402160;19;20637;-86
2023/05/05 23:56:30;;;;;;;0.30;0.30;;;;;;;;;;7399586;19;20153;-85
2023/05/05 23:58:57;;;;;;;0.43;0.43;;;;;;;;;;7402129;19;20141;-85
